createdAt,value
2023-03-27T00:01:07.991Z,14.88
2023-03-27T00:03:34.519Z,10.15
2023-03-27T00:06:02.812Z,20.33
2023-03-27T00:08:29.789Z,18.33
2023-03-27T00:10:56.349Z,12.93
2023-03-27T00:13:22.885Z,14.38
2023-03-27T00:15:50.469Z,16.60
2023-03-27T00:18:17.513Z,12.13
2023-03-27T00:20:44.623Z,9.63
2023-03-27T00:23:11.080Z,11.15
2023-03-27T00:25:37.545Z,12.75
2023-03-27T00:28:09.836Z,11.80
2023-03-27T00:33:03.634Z,20.23
2023-03-27T00:35:30.115Z,12.27
2023-03-27T00:37:58.813Z,15.27
2023-03-27T00:40:25.573Z,15.75
2023-03-27T00:42:52.166Z,10.27
2023-03-27T00:45:30.121Z,16.90
2023-03-27T00:48:02.892Z,23.23
2023-03-27T00:50:37.283Z,13.48
2023-03-27T00:53:10.230Z,15.52
2023-03-27T00:55:38.477Z,10.80
2023-03-27T00:58:10.338Z,16.48
2023-03-27T01:00:36.894Z,11.18
2023-03-27T01:03:05.907Z,9.65
2023-03-27T01:05:33.479Z,14.32
2023-03-27T01:08:01.804Z,13.02
2023-03-27T01:10:39.670Z,17.98
2023-03-27T01:13:38.332Z,12.57
2023-03-27T01:16:25.843Z,23.63
2023-03-27T01:19:01.421Z,19.10
2023-03-27T01:21:52.628Z,23.50
2023-03-27T01:24:35.285Z,8.02
2023-03-27T01:27:05.365Z,18.85
2023-03-27T01:29:31.635Z,16.73
2023-03-27T01:32:12.955Z,20.35
2023-03-27T01:35:01.315Z,22.67
2023-03-27T01:37:43.444Z,19.92
2023-03-27T01:40:14.962Z,14.32
2023-03-27T01:42:48.299Z,9.73
2023-03-27T01:45:20.615Z,15.02
2023-03-27T01:47:56.477Z,14.63
2023-03-27T01:50:29.123Z,10.02
2023-03-27T01:53:01.178Z,15.05
2023-03-27T01:55:31.874Z,18.38
2023-03-27T01:58:03.112Z,14.25
2023-03-27T02:00:51.472Z,16.85
2023-03-27T02:03:21.028Z,13.45
2023-03-27T02:05:58.332Z,16.25
2023-03-27T02:08:31.137Z,13.95
2023-03-27T02:10:59.054Z,16.27
2023-03-27T02:13:47.305Z,19.83
2023-03-27T02:16:16.792Z,16.55
2023-03-27T02:18:48.030Z,17.67
2023-03-27T02:21:15.293Z,21.05
2023-03-27T02:23:41.880Z,16.70
2023-03-27T02:26:11.283Z,14.88
2023-03-27T02:28:41.398Z,13.98
2023-03-27T02:31:44.139Z,8.35
2023-03-27T02:36:50.739Z,11.43
2023-03-27T02:39:40.535Z,18.65
2023-03-27T02:42:17.840Z,13.55
2023-03-27T02:44:52.323Z,6.28
2023-03-27T02:47:18.824Z,11.40
2023-03-27T02:49:58.447Z,12.73
2023-03-27T02:52:30.071Z,12.05
2023-03-27T02:55:06.154Z,19.17
2023-03-27T02:57:39.536Z,10.50
2023-03-27T03:00:25.913Z,11.40
2023-03-27T03:03:10.496Z,7.55
2023-03-27T03:05:37.123Z,12.50
2023-03-27T03:08:04.787Z,8.80
2023-03-27T03:10:31.468Z,16.42
2023-03-27T03:12:57.929Z,11.38
2023-03-27T03:15:24.322Z,8.57
2023-03-27T03:17:51.019Z,12.50
2023-03-27T03:20:17.565Z,15.77
2023-03-27T03:22:43.960Z,13.93
2023-03-27T03:25:12.939Z,11.02
2023-03-27T03:27:41.204Z,12.20
2023-03-27T03:30:09.542Z,14.55
2023-03-27T03:32:35.990Z,8.98
2023-03-27T03:35:02.819Z,9.85
2023-03-27T03:37:29.216Z,18.65
2023-03-27T03:39:55.866Z,11.52
2023-03-27T03:42:24.171Z,15.05
2023-03-27T03:44:50.909Z,16.35
2023-03-27T03:47:17.408Z,8.07
2023-03-27T03:49:43.810Z,13.80
2023-03-27T03:52:10.632Z,14.80
2023-03-27T03:54:38.577Z,6.80
2023-03-27T03:57:05.093Z,9.38
2023-03-27T03:59:32.037Z,13.43
2023-03-27T04:01:58.443Z,13.40
2023-03-27T04:04:25.079Z,14.07
2023-03-27T04:06:52.916Z,11.35
2023-03-27T04:09:19.290Z,10.40
2023-03-27T04:11:45.924Z,13.55
2023-03-27T04:14:12.299Z,13.82
2023-03-27T04:16:38.661Z,13.07
2023-03-27T04:19:05.615Z,15.75
2023-03-27T04:21:33.045Z,12.25
2023-03-27T04:24:02.342Z,11.63
2023-03-27T04:26:29.552Z,15.05
2023-03-27T04:28:56.028Z,11.32
2023-03-27T04:31:22.459Z,14.30
2023-03-27T04:33:51.870Z,9.82
2023-03-27T04:36:18.849Z,10.27
2023-03-27T04:38:45.532Z,13.75
2023-03-27T04:41:11.964Z,12.68
2023-03-27T04:43:40.077Z,16.33
2023-03-27T04:46:07.182Z,11.80
2023-03-27T04:48:34.044Z,10.55
2023-03-27T04:51:00.475Z,14.02
2023-03-27T04:53:30.124Z,13.55
2023-03-27T04:55:57.102Z,15.40
2023-03-27T04:58:26.609Z,18.27
2023-03-27T05:00:56.325Z,23.17
2023-03-27T05:03:27.721Z,22.45
2023-03-27T05:05:54.284Z,20.57
2023-03-27T05:08:20.866Z,11.48
2023-03-27T05:10:47.259Z,12.27
2023-03-27T05:13:13.724Z,14.13
2023-03-27T05:15:40.296Z,9.30
2023-03-27T05:18:07.395Z,11.73
2023-03-27T05:20:34.314Z,17.98
2023-03-27T05:23:00.881Z,12.63
2023-03-27T05:25:28.542Z,8.85
2023-03-27T05:27:54.997Z,8.05
2023-03-27T05:30:23.106Z,13.65
2023-03-27T05:32:51.948Z,8.90
2023-03-27T05:35:20.915Z,9.75
2023-03-27T05:37:48.844Z,8.82
2023-03-27T05:40:16.855Z,10.75
2023-03-27T05:42:44.573Z,7.25
2023-03-27T05:45:12.057Z,10.65
2023-03-27T05:47:45.480Z,11.73
2023-03-27T05:50:11.930Z,12.20
2023-03-27T05:52:38.610Z,11.50
2023-03-27T05:55:06.498Z,12.93
2023-03-27T05:57:32.965Z,11.77
2023-03-27T06:00:00.190Z,10.63
2023-03-27T06:02:27.634Z,14.95
2023-03-27T06:04:54.049Z,11.43
2023-03-27T06:07:20.438Z,9.00
2023-03-27T06:09:46.811Z,10.90
2023-03-27T06:12:13.189Z,11.15
2023-03-27T06:14:39.557Z,8.05
2023-03-27T06:17:06.393Z,9.90
2023-03-27T06:19:32.768Z,9.73
2023-03-27T06:21:59.155Z,9.95
2023-03-27T06:24:26.273Z,14.32
2023-03-27T06:26:52.942Z,11.35
2023-03-27T06:29:19.987Z,12.88
2023-03-27T06:31:48.284Z,9.98
2023-03-27T06:34:15.045Z,10.00
2023-03-27T06:36:41.508Z,16.27
2023-03-27T06:39:08.254Z,14.20
2023-03-27T06:41:34.668Z,6.88
2023-03-27T06:44:01.460Z,12.88
2023-03-27T06:46:35.617Z,15.02
2023-03-27T06:49:11.494Z,12.05
2023-03-27T06:51:37.888Z,8.73
2023-03-27T06:54:04.596Z,11.65
2023-03-27T06:56:31.280Z,8.20
2023-03-27T06:58:57.662Z,11.15
2023-03-27T07:01:24.064Z,8.32
2023-03-27T07:03:50.599Z,8.00
2023-03-27T07:06:19.161Z,10.25
2023-03-27T07:08:47.694Z,8.73
2023-03-27T07:11:15.621Z,10.73
2023-03-27T07:13:42.256Z,9.68
2023-03-27T07:16:11.871Z,5.65
2023-03-27T07:18:38.438Z,9.25
2023-03-27T07:21:04.957Z,8.18
2023-03-27T07:23:31.604Z,8.50
2023-03-27T07:25:59.210Z,4.30
2023-03-27T07:28:26.197Z,6.80
2023-03-27T07:30:52.739Z,11.55
2023-03-27T07:33:19.511Z,11.38
2023-03-27T07:35:47.477Z,10.68
2023-03-27T07:38:14.377Z,6.65
2023-03-27T07:40:42.609Z,8.43
2023-03-27T07:43:09.240Z,11.18
2023-03-27T07:45:36.494Z,9.35
2023-03-27T07:48:08.415Z,10.25
2023-03-27T07:50:35.797Z,6.82
2023-03-27T07:53:02.186Z,11.48
2023-03-27T07:55:29.650Z,6.82
2023-03-27T07:58:01.679Z,15.18
2023-03-27T08:00:31.057Z,9.75
2023-03-27T08:03:08.374Z,8.77
2023-03-27T08:05:35.725Z,7.30
2023-03-27T08:08:02.112Z,11.00
2023-03-27T08:10:28.517Z,11.10
2023-03-27T08:12:54.993Z,8.32
2023-03-27T08:15:24.821Z,9.13
2023-03-27T08:17:54.353Z,7.97
2023-03-27T08:20:22.743Z,6.15
2023-03-27T08:22:53.498Z,5.45
2023-03-27T08:25:22.374Z,5.20
2023-03-27T08:27:49.130Z,6.72
2023-03-27T08:30:17.035Z,12.00
2023-03-27T08:32:44.002Z,10.27
2023-03-27T08:35:10.752Z,10.73
2023-03-27T08:37:37.104Z,6.25
2023-03-27T08:40:08.723Z,9.65
2023-03-27T08:42:37.717Z,3.83
2023-03-27T08:45:13.198Z,6.93
2023-03-27T08:47:49.171Z,7.95
2023-03-27T08:50:26.198Z,10.32
2023-03-27T08:52:52.853Z,9.57
2023-03-27T08:55:26.090Z,13.05
2023-03-27T08:57:52.760Z,9.15
2023-03-27T09:00:22.783Z,9.57
2023-03-27T09:02:57.025Z,8.02
2023-03-27T09:05:26.263Z,10.50
2023-03-27T09:08:11.296Z,6.32
2023-03-27T09:11:15.686Z,6.93
2023-03-27T09:13:49.619Z,6.45
2023-03-27T09:16:21.867Z,10.68
2023-03-27T09:18:57.851Z,6.45
2023-03-27T09:21:34.780Z,7.20
2023-03-27T09:24:01.345Z,5.85
2023-03-27T09:26:35.626Z,6.55
2023-03-27T09:29:21.125Z,3.80
2023-03-27T09:31:51.912Z,9.38
2023-03-27T09:34:25.063Z,9.05
2023-03-27T09:36:51.460Z,3.95
2023-03-27T09:39:22.268Z,8.77
2023-03-27T09:41:53.029Z,10.85
2023-03-27T09:44:25.608Z,5.30
2023-03-27T09:46:58.060Z,9.13
2023-03-27T09:49:25.770Z,7.68
2023-03-27T09:52:00.130Z,2.75
2023-03-27T09:54:31.974Z,7.38
2023-03-27T09:57:04.194Z,8.45
2023-03-27T10:02:21.954Z,5.45
2023-03-27T10:05:00.667Z,8.55
2023-03-27T10:07:27.331Z,2.92
2023-03-27T10:10:12.195Z,6.43
2023-03-27T10:12:39.343Z,4.97
2023-03-27T10:15:07.827Z,5.88
2023-03-27T10:17:38.804Z,3.50
2023-03-27T10:20:17.537Z,5.63
2023-03-27T10:22:54.565Z,3.88
2023-03-27T10:25:37.872Z,3.13
2023-03-27T10:28:27.370Z,5.30
2023-03-27T10:31:06.505Z,4.47
2023-03-27T10:33:36.467Z,4.15
2023-03-27T10:36:04.665Z,2.85
2023-03-27T10:38:32.532Z,7.03
2023-03-27T10:41:00.216Z,7.28
2023-03-27T10:43:43.852Z,2.20
2023-03-27T10:46:15.833Z,8.73
2023-03-27T10:48:57.600Z,10.27
2023-03-27T10:51:49.628Z,6.47
2023-03-27T10:54:42.518Z,5.35
2023-03-27T10:57:35.526Z,4.10
2023-03-27T11:00:13.369Z,3.08
2023-03-27T11:02:45.251Z,4.97
2023-03-27T11:05:16.491Z,4.82
2023-03-27T11:07:47.644Z,5.03
2023-03-27T11:10:19.396Z,5.47
2023-03-27T11:12:54.414Z,4.53
2023-03-27T11:15:27.785Z,4.28
2023-03-27T11:18:05.495Z,3.35
2023-03-27T11:20:35.503Z,4.10
2023-03-27T11:23:11.798Z,5.68
2023-03-27T11:25:43.218Z,3.53
2023-03-27T11:28:26.976Z,3.05
2023-03-27T11:31:12.662Z,1.48
2023-03-27T11:33:49.182Z,6.00
2023-03-27T11:36:35.155Z,3.78
2023-03-27T11:39:15.341Z,2.70
2023-03-27T11:41:44.154Z,4.30
2023-03-27T11:44:11.043Z,3.75
2023-03-27T11:46:56.197Z,3.03
2023-03-27T11:49:44.531Z,3.95
2023-03-27T11:52:29.902Z,5.38
2023-03-27T11:55:07.574Z,28.45
2023-03-27T11:57:42.899Z,2.40
2023-03-27T12:00:18.276Z,4.00
2023-03-27T12:02:59.923Z,2.50
2023-03-27T12:05:58.342Z,2.40
2023-03-27T12:08:45.464Z,4.35
2023-03-27T12:11:12.492Z,4.53
2023-03-27T12:13:42.816Z,2.53
2023-03-27T12:16:35.632Z,3.60
2023-03-27T12:19:39.111Z,7.97
2023-03-27T12:22:56.682Z,2.70
2023-03-27T12:25:33.619Z,4.43
2023-03-27T12:28:22.378Z,1.58
2023-03-27T12:31:20.631Z,3.75
2023-03-27T12:33:59.340Z,5.38
2023-03-27T12:36:26.397Z,2.67
2023-03-27T12:38:55.699Z,2.38
2023-03-27T12:41:24.519Z,3.13
2023-03-27T12:43:57.094Z,3.22
2023-03-27T12:46:23.479Z,1.40
2023-03-27T12:49:08.150Z,3.78
2023-03-27T12:52:02.656Z,6.03
2023-03-27T12:54:34.160Z,4.82
2023-03-27T12:57:20.524Z,8.82
2023-03-27T12:59:54.218Z,3.17
2023-03-27T13:02:42.480Z,7.13
2023-03-27T13:05:20.409Z,8.52
2023-03-27T13:08:15.811Z,3.60
2023-03-27T13:10:52.458Z,1.50
2023-03-27T13:13:30.305Z,3.72
2023-03-27T13:16:11.644Z,1.55
2023-03-27T13:18:48.291Z,3.87
2023-03-27T13:21:41.295Z,3.25
2023-03-27T13:24:19.510Z,2.30
2023-03-27T13:26:51.935Z,4.72
2023-03-27T13:29:21.270Z,1.60
2023-03-27T13:31:49.183Z,5.57
2023-03-27T13:34:39.665Z,2.50
2023-03-27T13:37:09.040Z,2.60
2023-03-27T13:39:55.646Z,2.38
2023-03-27T13:42:30.563Z,2.25
2023-03-27T13:45:00.055Z,2.63
2023-03-27T13:47:33.401Z,2.95
2023-03-27T13:50:21.056Z,2.45
2023-03-27T13:52:59.578Z,4.15
2023-03-27T13:55:31.130Z,3.65
2023-03-27T13:58:15.865Z,4.40
2023-03-27T14:01:02.969Z,2.75
2023-03-27T14:03:52.385Z,7.90
2023-03-27T14:06:44.925Z,9.65
2023-03-27T14:09:11.217Z,2.60
2023-03-27T14:11:47.807Z,2.55
2023-03-27T14:14:37.147Z,1.75
2023-03-27T14:17:22.050Z,2.03
2023-03-27T14:20:06.856Z,1.70
2023-03-27T14:22:42.866Z,2.78
2023-03-27T14:25:21.069Z,1.60
2023-03-27T14:27:54.134Z,1.77
2023-03-27T14:30:23.985Z,1.30
2023-03-27T14:32:50.539Z,2.13
2023-03-27T14:35:36.082Z,2.13
2023-03-27T14:38:28.234Z,0.70
2023-03-27T14:40:59.451Z,1.17
2023-03-27T14:43:27.824Z,1.48
2023-03-27T14:45:59.779Z,2.15
2023-03-27T14:48:37.081Z,2.72
2023-03-27T14:51:09.286Z,3.90
2023-03-27T14:56:06.054Z,1.58
2023-03-27T14:58:32.456Z,5.55
2023-03-27T15:01:00.301Z,3.05
2023-03-27T15:03:30.067Z,3.80
2023-03-27T15:06:00.990Z,3.58
2023-03-27T15:08:33.908Z,3.85
2023-03-27T15:11:00.536Z,3.45
2023-03-27T15:13:33.586Z,3.75
2023-03-27T15:16:00.899Z,1.77
2023-03-27T15:18:34.322Z,4.05
2023-03-27T15:21:04.221Z,3.22
2023-03-27T15:23:55.523Z,1.48
2023-03-27T15:26:25.494Z,3.08
2023-03-27T15:29:08.052Z,4.60
2023-03-27T15:31:35.112Z,3.03
2023-03-27T15:34:06.263Z,2.92
2023-03-27T15:36:34.569Z,1.30
2023-03-27T15:39:02.556Z,1.55
2023-03-27T15:41:31.861Z,6.07
2023-03-27T15:44:03.291Z,2.45
2023-03-27T15:46:51.096Z,5.45
2023-03-27T15:49:19.975Z,5.18
2023-03-27T15:51:46.351Z,2.00
2023-03-27T15:54:24.476Z,4.32
2023-03-27T15:56:51.289Z,1.02
2023-03-27T15:59:17.945Z,2.88
2023-03-27T16:02:03.538Z,2.38
2023-03-27T16:04:39.152Z,1.90
2023-03-27T16:07:18.291Z,3.45
2023-03-27T16:09:54.828Z,5.22
2023-03-27T16:12:25.982Z,5.28
2023-03-27T16:14:54.466Z,7.13
2023-03-27T16:17:32.296Z,6.57
2023-03-27T16:20:01.900Z,14.55
2023-03-27T16:22:30.675Z,12.30
2023-03-27T16:24:57.794Z,9.20
2023-03-27T16:27:27.672Z,6.75
2023-03-27T16:29:54.468Z,6.47
2023-03-27T16:32:22.012Z,2.58
2023-03-27T16:34:51.399Z,4.45
2023-03-27T16:37:20.057Z,5.10
2023-03-27T16:39:46.784Z,2.75
2023-03-27T16:42:15.961Z,3.97
2023-03-27T16:44:43.138Z,6.70
2023-03-27T16:47:09.531Z,6.07
2023-03-27T16:49:35.935Z,4.95
2023-03-27T16:52:02.441Z,7.10
2023-03-27T16:54:28.807Z,3.17
2023-03-27T16:56:55.262Z,6.00
2023-03-27T16:59:21.747Z,4.75
2023-03-27T17:01:48.340Z,4.25
2023-03-27T17:04:14.797Z,5.13
2023-03-27T17:06:41.618Z,2.40
2023-03-27T17:09:09.509Z,4.28
2023-03-27T17:11:36.196Z,4.05
2023-03-27T17:14:02.807Z,3.13
2023-03-27T17:16:29.199Z,3.00
2023-03-27T17:18:57.242Z,5.93
2023-03-27T17:21:24.986Z,2.40
2023-03-27T17:23:52.690Z,4.07
2023-03-27T17:26:23.286Z,2.90
2023-03-27T17:28:49.715Z,2.15
2023-03-27T17:31:16.194Z,2.08
2023-03-27T17:33:42.643Z,4.28
2023-03-27T17:36:11.093Z,6.75
2023-03-27T17:38:38.072Z,3.45
2023-03-27T17:41:05.592Z,5.30
2023-03-27T17:43:32.190Z,2.60
2023-03-27T17:45:58.808Z,3.85
2023-03-27T17:48:25.367Z,6.55
2023-03-27T17:51:05.165Z,1.65
2023-03-27T17:53:34.436Z,2.97
2023-03-27T17:56:00.791Z,6.07
2023-03-27T17:58:28.501Z,4.32
2023-03-27T18:00:55.425Z,6.93
2023-03-27T18:03:22.132Z,4.72
2023-03-27T18:05:48.673Z,8.98
2023-03-27T18:08:16.953Z,4.25
2023-03-27T18:10:48.387Z,8.07
2023-03-27T18:13:16.091Z,6.57
2023-03-27T18:15:42.641Z,5.13
2023-03-27T18:18:09.182Z,5.57
2023-03-27T18:20:35.982Z,6.43
2023-03-27T18:23:02.772Z,3.22
2023-03-27T18:25:29.169Z,10.60
2023-03-27T18:27:55.767Z,7.28
2023-03-27T18:30:22.168Z,7.55
2023-03-27T18:32:48.763Z,3.47
2023-03-27T18:35:17.852Z,6.10
2023-03-27T18:37:44.702Z,9.98
2023-03-27T18:40:13.280Z,5.05
2023-03-27T18:42:40.630Z,5.05
2023-03-27T18:45:08.390Z,6.35
2023-03-27T18:47:35.508Z,8.20
2023-03-27T18:50:02.610Z,7.47
2023-03-27T18:52:29.035Z,9.68
2023-03-27T18:54:55.401Z,6.40
2023-03-27T18:57:22.118Z,5.05
2023-03-27T18:59:49.283Z,4.38
2023-03-27T19:02:17.213Z,14.57
2023-03-27T19:04:44.596Z,9.68
2023-03-27T19:07:11.596Z,5.65
2023-03-27T19:09:41.333Z,8.52
2023-03-27T19:12:08.177Z,6.10
2023-03-27T19:14:34.739Z,9.18
2023-03-27T19:17:01.157Z,6.28
2023-03-27T19:19:27.609Z,5.65
2023-03-27T19:21:54.516Z,5.32
2023-03-27T19:24:20.911Z,8.07
2023-03-27T19:26:47.329Z,6.30
2023-03-27T19:29:13.857Z,3.40
2023-03-27T19:31:40.558Z,6.78
2023-03-27T19:34:07.233Z,2.70
2023-03-27T19:36:34.014Z,5.88
2023-03-27T19:39:00.808Z,10.07
2023-03-27T19:41:27.344Z,3.88
2023-03-27T19:43:53.746Z,6.00
2023-03-27T19:46:20.187Z,10.35
2023-03-27T19:48:49.615Z,7.78
2023-03-27T19:51:16.014Z,6.03
2023-03-27T19:53:42.397Z,9.32
2023-03-27T19:56:08.786Z,8.95
2023-03-27T19:58:35.264Z,10.50
2023-03-27T20:01:01.676Z,5.13
2023-03-27T20:03:29.216Z,8.30
2023-03-27T20:06:07.039Z,6.25
2023-03-27T20:08:37.837Z,3.47
2023-03-27T20:11:04.376Z,6.38
2023-03-27T20:13:30.765Z,10.82
2023-03-27T20:15:57.968Z,4.95
2023-03-27T20:18:24.482Z,9.98
2023-03-27T20:20:50.856Z,7.93
2023-03-27T20:23:17.624Z,5.25
2023-03-27T20:25:44.740Z,6.88
2023-03-27T20:28:11.239Z,8.40
2023-03-27T20:30:38.968Z,5.47
2023-03-27T20:33:05.701Z,8.23
2023-03-27T20:35:33.270Z,11.05
2023-03-27T20:38:04.651Z,6.95
2023-03-27T20:40:52.946Z,6.30
2023-03-27T20:43:22.729Z,6.35
2023-03-27T20:45:54.646Z,10.38
2023-03-27T20:48:21.753Z,6.35
2023-03-27T20:50:51.093Z,8.73
2023-03-27T20:53:18.825Z,6.80
2023-03-27T20:55:59.374Z,6.13
2023-03-27T20:58:26.303Z,13.13
2023-03-27T21:00:53.417Z,8.70
2023-03-27T21:03:20.821Z,8.80
2023-03-27T21:05:47.291Z,9.18
2023-03-27T21:08:13.791Z,7.60
2023-03-27T21:10:41.126Z,8.73
2023-03-27T21:13:07.868Z,8.23
2023-03-27T21:15:34.559Z,9.05
2023-03-27T21:18:01.299Z,7.85
2023-03-27T21:20:27.958Z,6.38
2023-03-27T21:22:54.339Z,8.25
2023-03-27T21:25:21.529Z,8.90
2023-03-27T21:27:48.448Z,8.40
2023-03-27T21:30:16.506Z,5.30
2023-03-27T21:32:43.167Z,6.47
2023-03-27T21:35:09.851Z,9.95
2023-03-27T21:37:36.766Z,7.60
2023-03-27T21:40:04.670Z,10.15
2023-03-27T21:42:31.156Z,7.10
2023-03-27T21:44:57.674Z,5.75
2023-03-27T21:47:31.666Z,8.95
2023-03-27T21:50:04.065Z,5.68
2023-03-27T21:52:30.488Z,7.90
2023-03-27T21:55:02.887Z,11.43
2023-03-27T21:57:29.811Z,8.18
2023-03-27T21:59:56.242Z,8.60
2023-03-27T22:02:22.614Z,11.48
2023-03-27T22:04:49.144Z,11.18
2023-03-27T22:07:15.910Z,10.73
2023-03-27T22:09:44.311Z,7.15
2023-03-27T22:12:10.754Z,10.65
2023-03-27T22:14:37.138Z,12.88
2023-03-27T22:17:03.682Z,10.15
2023-03-27T22:19:30.398Z,7.07
2023-03-27T22:21:57.346Z,10.65
2023-03-27T22:24:25.382Z,10.13
2023-03-27T22:26:51.763Z,12.00
2023-03-27T22:29:18.120Z,8.55
2023-03-27T22:31:44.515Z,8.70
2023-03-27T22:34:11.664Z,6.28
2023-03-27T22:36:38.143Z,13.07
2023-03-27T22:39:04.943Z,11.00
2023-03-27T22:41:31.309Z,9.60
2023-03-27T22:44:00.255Z,8.38
2023-03-27T22:46:26.688Z,16.83
2023-03-27T22:48:55.210Z,11.05
2023-03-27T22:51:22.292Z,9.38
2023-03-27T22:53:48.840Z,6.03
2023-03-27T22:56:15.476Z,8.63
2023-03-27T22:58:41.827Z,12.45
2023-03-27T23:01:08.243Z,12.45
2023-03-27T23:03:34.684Z,8.77
2023-03-27T23:06:01.574Z,9.60
2023-03-27T23:08:28.629Z,8.95
2023-03-27T23:11:00.482Z,6.05
2023-03-27T23:13:28.234Z,7.25
2023-03-27T23:15:55.312Z,11.50
2023-03-27T23:18:24.367Z,9.13
2023-03-27T23:21:07.840Z,13.27
2023-03-27T23:23:35.718Z,7.35
2023-03-27T23:26:03.546Z,13.48
2023-03-27T23:28:32.971Z,7.63
2023-03-27T23:31:04.734Z,11.57
2023-03-27T23:33:41.809Z,9.38
2023-03-27T23:36:13.106Z,7.63
2023-03-27T23:38:41.265Z,7.93
2023-03-27T23:41:08.777Z,5.70
2023-03-27T23:43:35.721Z,8.95
2023-03-27T23:46:04.046Z,11.63
2023-03-27T23:48:31.105Z,8.07
2023-03-27T23:50:58.096Z,9.60
2023-03-27T23:53:26.100Z,10.52
2023-03-27T23:55:53.286Z,11.35
2023-03-27T23:58:20.158Z,14.55
